Time;durP1;ratioP1;P1;durP2;ratioP2;P2;SDS_P1;SDS_P2;PMS_P1;PMS_P2;Temp;Humidity;BMP_temperature;BMP_pressure;BME280_temperature;BME280_humidity;BME280_pressure;Samples;Min_cycle;Max_cycle;Signal;HPM_P1;HPM_P2
2022/08/18 00:02:13;;;;;;;8.52;5.38;;;22.00;96.10;;;;;;10405980;28;20415;-64
2022/08/18 00:07:26;;;;;;;7.47;4.95;;;22.00;95.90;;;;;;10404492;28;20108;-64
2022/08/18 00:12:31;;;;;;;6.18;5.10;;;21.90;95.80;;;;;;10401959;28;20501;-64
2022/08/18 00:17:33;;;;;;;8.13;4.90;;;21.90;95.80;;;;;;10392453;28;20596;-64
2022/08/18 00:22:34;;;;;;;9.60;4.88;;;21.90;95.80;;;;;;10408322;28;20037;-64
2022/08/18 00:27:37;;;;;;;7.25;4.97;;;21.90;95.90;;;;;;10402945;28;20017;-64
2022/08/18 00:32:41;;;;;;;9.23;5.38;;;21.90;95.90;;;;;;10405078;28;20041;-64
2022/08/18 00:37:42;;;;;;;10.60;5.05;;;21.90;95.90;;;;;;10401700;28;20060;-64
2022/08/18 00:42:48;;;;;;;8.15;5.00;;;21.90;95.90;;;;;;10392991;28;20140;-64
2022/08/18 00:47:48;;;;;;;6.20;5.00;;;21.90;95.90;;;;;;10392525;28;20371;-64
2022/08/18 00:52:59;;;;;;;7.13;5.05;;;21.90;95.90;;;;;;10394016;28;20037;-63
2022/08/18 00:58:10;;;;;;;7.70;4.65;;;21.90;95.90;;;;;;10400867;28;20273;-64
2022/08/18 01:03:15;;;;;;;7.45;4.70;;;21.90;95.90;;;;;;10391466;28;20435;-64
2022/08/18 01:08:16;;;;;;;8.95;4.80;;;21.90;95.90;;;;;;10393583;28;20265;-64
2022/08/18 01:13:17;;;;;;;6.65;4.80;;;21.90;95.90;;;;;;10389811;28;20611;-64
2022/08/18 01:24:20;;;;;;;7.10;4.90;;;21.80;95.90;;;;;;10409781;28;20489;-63
2022/08/18 01:29:21;;;;;;;7.70;4.20;;;21.80;95.90;;;;;;10403897;28;20064;-63
2022/08/18 01:34:24;;;;;;;6.30;5.07;;;21.80;95.90;;;;;;10390685;28;20379;-64
2022/08/18 01:39:25;;;;;;;7.47;4.40;;;21.80;95.90;;;;;;10394397;28;20056;-63
2022/08/18 01:44:26;;;;;;;5.72;4.50;;;21.80;95.90;;;;;;10397241;28;20461;-64
2022/08/18 01:49:29;;;;;;;8.75;4.63;;;21.80;95.90;;;;;;10402186;28;20035;-64
2022/08/18 01:54:30;;;;;;;6.90;4.90;;;21.80;95.90;;;;;;10394747;28;20033;-63
2022/08/18 01:59:31;;;;;;;9.98;4.57;;;21.80;96.00;;;;;;10392164;28;20033;-63
2022/08/18 02:04:33;;;;;;;6.35;4.50;;;21.80;96.00;;;;;;10397465;28;20827;-64
2022/08/18 02:09:34;;;;;;;9.55;4.43;;;21.80;96.00;;;;;;10405085;22;20090;-63
2022/08/18 02:14:35;;;;;;;5.43;4.25;;;21.80;96.00;;;;;;10433082;28;20049;-63
2022/08/18 02:19:39;;;;;;;6.13;4.28;;;21.80;96.00;;;;;;10432966;28;21050;-63
2022/08/18 02:24:41;;;;;;;7.22;4.43;;;21.80;96.00;;;;;;10428861;28;20457;-63
2022/08/18 02:29:42;;;;;;;6.07;4.28;;;21.80;96.00;;;;;;10430033;28;20028;-64
2022/08/18 02:34:42;;;;;;;6.88;4.57;;;21.80;96.00;;;;;;10430695;28;20394;-64
2022/08/18 02:39:43;;;;;;;8.07;5.88;;;21.70;96.00;;;;;;10431330;28;20429;-64
2022/08/18 02:44:44;;;;;;;7.35;4.30;;;21.70;96.00;;;;;;10431568;28;20251;-64
2022/08/18 02:49:45;;;;;;;5.50;4.47;;;21.70;96.00;;;;;;10437835;28;20112;-64
2022/08/18 02:54:47;;;;;;;5.15;4.38;;;21.70;96.00;;;;;;10434722;28;20047;-63
2022/08/18 02:59:48;;;;;;;5.72;4.40;;;21.70;96.10;;;;;;10435094;28;20041;-64
2022/08/18 03:04:50;;;;;;;7.63;4.57;;;21.70;96.10;;;;;;10437208;28;20032;-64
2022/08/18 03:09:50;;;;;;;7.63;5.18;;;21.60;96.00;;;;;;10437359;28;20069;-63
2022/08/18 03:14:51;;;;;;;6.38;4.22;;;21.70;96.10;;;;;;10433674;28;20652;-64
2022/08/18 03:19:52;;;;;;;6.57;3.97;;;21.70;96.10;;;;;;10437438;28;20063;-63
2022/08/18 03:24:53;;;;;;;5.35;4.18;;;21.70;96.10;;;;;;10436926;28;20079;-63
2022/08/18 03:29:54;;;;;;;8.15;4.78;;;21.70;96.40;;;;;;10434576;28;20029;-64
2022/08/18 03:34:54;;;;;;;5.75;4.70;;;21.70;96.10;;;;;;10437875;28;21296;-64
2022/08/18 03:39:55;;;;;;;6.97;4.25;;;21.70;96.10;;;;;;10436910;28;20570;-63
2022/08/18 03:44:56;;;;;;;7.45;4.43;;;21.70;96.10;;;;;;10435155;28;20051;-63
2022/08/18 03:49:56;;;;;;;7.22;4.38;;;21.70;96.20;;;;;;10432162;28;20025;-64
2022/08/18 03:54:58;;;;;;;6.55;4.65;;;21.60;96.10;;;;;;10436332;28;20048;-63
2022/08/18 03:59:59;;;;;;;6.00;4.38;;;21.60;96.10;;;;;;10436269;28;20029;-64
2022/08/18 04:05:00;;;;;;;5.07;4.05;;;21.60;96.20;;;;;;10436563;28;20041;-64
2022/08/18 04:10:01;;;;;;;7.22;4.25;;;21.60;96.10;;;;;;10433442;28;20037;-63
2022/08/18 04:15:02;;;;;;;6.10;4.30;;;21.60;96.20;;;;;;10435286;28;20435;-63
2022/08/18 04:20:03;;;;;;;5.28;4.25;;;21.60;96.20;;;;;;10438011;28;20516;-64
2022/08/18 04:25:08;;;;;;;6.13;4.50;;;21.60;96.20;;;;;;10433690;28;20041;-63
2022/08/18 04:30:10;;;;;;;7.63;4.40;;;21.60;96.20;;;;;;10434901;28;20031;-63
2022/08/18 04:35:11;;;;;;;7.78;4.70;;;21.60;96.20;;;;;;10433929;28;20033;-63
2022/08/18 04:40:13;;;;;;;5.03;4.10;;;21.60;96.20;;;;;;10436915;28;20082;-63
2022/08/18 04:45:13;;;;;;;6.35;4.05;;;21.50;96.20;;;;;;10436250;28;20044;-64
2022/08/18 04:50:14;;;;;;;5.05;4.22;;;21.60;96.20;;;;;;10437479;28;20281;-63
2022/08/18 04:55:15;;;;;;;6.10;4.03;;;21.60;96.20;;;;;;10433957;28;20039;-64
2022/08/18 05:00:18;;;;;;;5.28;4.20;;;21.60;96.20;;;;;;10437088;28;20029;-64
2022/08/18 05:05:19;;;;;;;7.10;4.43;;;21.60;96.20;;;;;;10433676;28;20404;-63
2022/08/18 05:10:19;;;;;;;7.55;4.35;;;21.60;96.50;;;;;;10431444;28;20037;-63
2022/08/18 05:15:20;;;;;;;6.57;4.38;;;21.60;96.20;;;;;;10435847;28;20037;-64
2022/08/18 05:20:22;;;;;;;4.72;4.28;;;21.60;96.20;;;;;;10437463;28;20025;-64
2022/08/18 05:25:22;;;;;;;5.15;4.28;;;21.60;96.30;;;;;;10434428;28;20443;-64
2022/08/18 05:30:24;;;;;;;6.65;4.00;;;21.50;96.20;;;;;;10433528;28;20025;-64
2022/08/18 05:35:33;;;;;;;5.10;4.13;;;21.50;96.20;;;;;;10385946;28;20033;-64
2022/08/18 05:40:37;;;;;;;5.22;4.40;;;21.60;96.30;;;;;;10361738;28;20090;-64
2022/08/18 05:45:39;;;;;;;5.45;3.83;;;21.50;96.20;;;;;;10363752;28;20029;-64
2022/08/18 05:50:41;;;;;;;7.25;4.57;;;21.50;96.20;;;;;;10336873;28;20155;-64
2022/08/18 06:01:43;;;;;;;5.28;4.00;;;21.60;96.30;;;;;;10373553;22;20057;-64
2022/08/18 06:06:46;;;;;;;7.47;4.25;;;21.60;96.20;;;;;;10337276;28;20279;-64
2022/08/18 06:11:48;;;;;;;8.00;4.65;;;21.50;96.20;;;;;;10312652;28;20410;-64
2022/08/18 06:17:15;;;;;;;7.95;3.90;;;21.60;96.20;;;;;;10331252;28;20025;-64
2022/08/18 06:22:19;;;;;;;5.63;4.05;;;21.60;96.20;;;;;;10336181;28;20774;-64
2022/08/18 06:27:32;;;;;;;4.55;3.72;;;21.60;96.20;;;;;;10341293;28;20394;-64
2022/08/18 06:32:33;;;;;;;6.78;3.75;;;21.60;96.10;;;;;;10344217;28;20048;-64
2022/08/18 06:43:15;;;;;;;6.57;4.30;;;21.60;96.10;;;;;;10343107;28;20585;-64
2022/08/18 06:48:19;;;;;;;5.55;3.70;;;21.60;96.00;;;;;;10320993;28;20078;-63
2022/08/18 06:53:20;;;;;;;7.20;4.38;;;21.60;96.00;;;;;;10341031;28;20552;-64
2022/08/18 06:58:28;;;;;;;5.05;3.83;;;21.60;96.00;;;;;;10341861;28;20071;-64
2022/08/18 07:03:35;;;;;;;5.03;4.03;;;21.60;96.00;;;;;;10334760;28;20480;-64
2022/08/18 07:08:43;;;;;;;5.55;3.90;;;21.60;96.00;;;;;;10334944;28;20348;-64
2022/08/18 07:13:46;;;;;;;5.53;3.90;;;21.70;96.00;;;;;;10336610;28;20107;-65
2022/08/18 07:19:06;;;;;;;5.63;4.10;;;21.70;95.90;;;;;;10474437;22;20467;-67
2022/08/18 07:24:43;;;;;;;6.00;4.03;;;21.70;95.90;;;;;;10352769;22;20401;-64
2022/08/18 07:30:23;;;;;;;5.67;4.00;;;21.80;96.10;;;;;;10367501;28;20705;-65
2022/08/18 07:35:49;;;;;;;5.38;4.47;;;21.80;95.90;;;;;;10360778;28;20032;-63
2022/08/18 07:40:59;;;;;;;7.07;4.50;;;21.90;95.80;;;;;;10366302;28;20567;-65
2022/08/18 07:46:13;;;;;;;6.35;4.43;;;21.80;95.70;;;;;;10364851;28;20337;-64
2022/08/18 07:51:35;;;;;;;5.10;4.20;;;21.90;95.70;;;;;;10369745;28;20025;-63
2022/08/18 07:56:54;;;;;;;6.40;4.45;;;21.90;95.70;;;;;;10362672;28;20068;-64
2022/08/18 08:02:16;;;;;;;5.10;4.43;;;22.00;95.70;;;;;;10364023;28;20468;-65
2022/08/18 08:07:28;;;;;;;6.72;4.13;;;22.00;95.60;;;;;;10369211;28;20507;-64
2022/08/18 08:12:39;;;;;;;6.65;4.18;;;22.00;95.50;;;;;;10365922;28;20529;-63
2022/08/18 08:18:07;;;;;;;5.10;4.07;;;22.00;95.50;;;;;;10358917;28;20734;-65
2022/08/18 08:23:44;;;;;;;6.65;3.92;;;22.00;95.50;;;;;;10349291;28;20087;-65
2022/08/18 08:29:05;;;;;;;5.47;3.53;;;22.10;95.50;;;;;;10345994;28;20552;-65
2022/08/18 08:34:28;;;;;;;6.53;4.05;;;22.10;95.50;;;;;;10346247;28;20017;-64
2022/08/18 08:39:38;;;;;;;6.00;3.60;;;22.10;95.50;;;;;;10357101;28;20669;-68
2022/08/18 08:44:45;;;;;;;4.20;3.67;;;22.10;95.50;;;;;;10351270;28;20041;-64
2022/08/18 08:49:51;;;;;;;5.73;3.93;;;22.10;95.40;;;;;;10351266;28;20029;-65
2022/08/18 08:55:04;;;;;;;4.35;3.55;;;22.20;95.40;;;;;;10332371;28;20532;-71
2022/08/18 09:00:13;;;;;;;5.65;3.20;;;22.20;95.70;;;;;;10353829;28;20391;-65
2022/08/18 09:05:32;;;;;;;6.78;3.00;;;22.10;96.00;;;;;;10354407;28;20045;-65
2022/08/18 09:10:38;;;;;;;5.85;3.17;;;22.00;96.20;;;;;;10356093;28;20405;-65
2022/08/18 09:15:41;;;;;;;4.82;3.15;;;22.10;96.30;;;;;;10362314;28;20094;-65
2022/08/18 09:20:48;;;;;;;5.28;3.00;;;22.00;96.30;;;;;;10355025;28;20076;-64
2022/08/18 09:25:52;;;;;;;3.75;3.20;;;21.90;96.40;;;;;;10356375;28;20130;-65
2022/08/18 09:31:02;;;;;;;5.25;3.30;;;22.00;96.40;;;;;;10354922;28;20437;-64
2022/08/18 09:36:18;;;;;;;3.25;2.47;;;22.10;96.50;;;;;;10353462;28;20772;-66
2022/08/18 09:41:30;;;;;;;4.10;2.90;;;22.10;96.40;;;;;;10360548;28;20619;-65
2022/08/18 09:46:45;;;;;;;3.30;2.58;;;22.10;96.40;;;;;;10361893;28;20867;-65
2022/08/18 09:51:52;;;;;;;5.10;2.90;;;22.10;96.40;;;;;;10362643;28;20281;-65
2022/08/18 09:57:15;;;;;;;5.00;2.53;;;22.10;96.40;;;;;;10356677;28;20037;-65
2022/08/18 10:02:28;;;;;;;3.95;2.70;;;22.10;96.30;;;;;;10359053;28;20594;-66
2022/08/18 10:07:29;;;;;;;3.83;2.15;;;22.30;96.20;;;;;;10355501;28;20569;-65
2022/08/18 10:12:54;;;;;;;3.15;2.05;;;22.30;96.00;;;;;;10334089;28;20679;-66
2022/08/18 10:18:12;;;;;;;2.75;2.20;;;22.40;95.90;;;;;;10342585;28;20369;-65
2022/08/18 10:23:47;;;;;;;4.65;2.13;;;22.50;95.90;;;;;;10360521;28;20075;-65
2022/08/18 10:28:56;;;;;;;3.13;2.10;;;22.50;95.80;;;;;;10358789;28;20038;-65
2022/08/18 10:34:09;;;;;;;2.58;1.67;;;22.60;95.70;;;;;;10363306;28;20129;-67
2022/08/18 10:39:18;;;;;;;3.78;2.17;;;22.60;95.70;;;;;;10360796;28;20144;-65
2022/08/18 10:44:21;;;;;;;2.28;1.67;;;22.50;95.60;;;;;;10364349;28;20420;-64
2022/08/18 10:49:25;;;;;;;2.25;1.80;;;22.50;95.60;;;;;;10361644;28;20477;-65
2022/08/18 10:54:56;;;;;;;1.88;1.60;;;22.50;95.60;;;;;;10339006;28;20033;-66
2022/08/18 11:00:18;;;;;;;1.70;1.40;;;22.60;95.50;;;;;;10359914;28;20013;-63
2022/08/18 11:05:24;;;;;;;3.53;1.60;;;22.60;95.50;;;;;;10360155;28;20164;-65
2022/08/18 11:10:47;;;;;;;1.60;1.50;;;22.60;95.40;;;;;;10367455;28;20043;-64
2022/08/18 11:16:06;;;;;;;2.72;1.60;;;22.60;95.30;;;;;;10368911;28;20021;-64
2022/08/18 11:21:31;;;;;;;1.75;1.40;;;22.70;95.30;;;;;;10362496;28;20071;-64
2022/08/18 11:26:40;;;;;;;1.20;1.10;;;22.70;95.30;;;;;;10366995;28;20059;-64
2022/08/18 11:31:40;;;;;;;1.83;1.50;;;22.70;95.10;;;;;;10370741;28;20028;-65
2022/08/18 11:36:41;;;;;;;1.30;1.20;;;22.80;95.10;;;;;;10361408;28;20644;-65
2022/08/18 11:41:45;;;;;;;5.03;1.42;;;22.80;95.00;;;;;;10369434;28;20059;-64
2022/08/18 11:46:45;;;;;;;2.30;1.50;;;22.90;95.00;;;;;;10367106;28;20484;-65
2022/08/18 11:52:28;;;;;;;2.53;1.38;;;22.90;95.00;;;;;;10364736;28;20032;-64
2022/08/18 11:57:54;;;;;;;2.40;1.50;;;22.90;95.00;;;;;;10367911;28;20556;-64
2022/08/18 12:03:03;;;;;;;2.90;1.40;;;22.90;95.00;;;;;;10362547;28;20671;-64
2022/08/18 12:08:15;;;;;;;2.53;1.50;;;22.90;95.00;;;;;;10370236;28;20123;-65
2022/08/18 12:13:24;;;;;;;2.17;1.40;;;23.00;94.90;;;;;;10364538;28;20102;-65
2022/08/18 12:18:24;;;;;;;2.10;1.40;;;23.10;94.90;;;;;;10367762;28;20025;-65
2022/08/18 12:23:25;;;;;;;3.53;1.60;;;23.10;94.80;;;;;;10362922;28;20053;-65
2022/08/18 12:28:26;;;;;;;2.58;1.52;;;23.10;94.70;;;;;;10369230;28;20025;-65
2022/08/18 12:33:27;;;;;;;2.22;1.50;;;23.20;94.60;;;;;;10364233;28;20405;-66
2022/08/18 12:38:27;;;;;;;2.30;1.70;;;23.20;94.60;;;;;;10366372;28;20099;-66
2022/08/18 12:43:28;;;;;;;2.67;1.75;;;23.30;94.50;;;;;;10365467;28;20040;-66
2022/08/18 12:48:30;;;;;;;1.92;1.52;;;23.30;94.50;;;;;;10364467;28;20052;-67
2022/08/18 12:53:31;;;;;;;2.55;1.58;;;23.30;94.40;;;;;;10367008;28;20410;-66
2022/08/18 12:58:32;;;;;;;2.03;1.65;;;23.40;94.70;;;;;;10346288;28;20146;-65
2022/08/18 13:03:33;;;;;;;1.67;1.58;;;23.40;94.30;;;;;;10360540;28;20630;-65
2022/08/18 13:08:33;;;;;;;1.92;1.73;;;23.40;94.30;;;;;;10370278;28;20038;-65
2022/08/18 13:13:35;;;;;;;3.33;1.60;;;23.50;94.30;;;;;;10366644;28;20041;-66
2022/08/18 13:18:36;;;;;;;2.00;1.63;;;23.50;94.20;;;;;;10363244;28;20413;-66
2022/08/18 13:23:38;;;;;;;6.18;1.58;;;23.60;94.20;;;;;;10368768;28;20084;-67
2022/08/18 13:28:39;;;;;;;1.67;1.40;;;23.60;94.10;;;;;;10365286;28;21013;-65
2022/08/18 13:33:41;;;;;;;2.30;1.63;;;23.70;94.00;;;;;;10363490;28;20040;-68
2022/08/18 13:38:42;;;;;;;1.70;1.48;;;23.80;94.20;;;;;;10367304;28;20626;-66
2022/08/18 13:43:45;;;;;;;1.65;1.30;;;23.80;93.80;;;;;;10352580;28;20061;-66
2022/08/18 13:48:46;;;;;;;1.70;1.60;;;23.80;93.80;;;;;;10371575;28;20957;-67
2022/08/18 13:53:46;;;;;;;3.25;1.95;;;23.80;93.90;;;;;;10367030;28;20041;-72
2022/08/18 13:58:47;;;;;;;1.98;1.60;;;23.90;93.60;;;;;;10361672;28;20126;-66
2022/08/18 14:03:49;;;;;;;2.88;1.63;;;23.80;93.40;;;;;;10358742;28;20049;-70
2022/08/18 14:08:51;;;;;;;2.13;1.77;;;23.70;93.30;;;;;;10359825;28;20592;-64
2022/08/18 14:13:53;;;;;;;3.63;1.83;;;23.70;93.00;;;;;;10369948;28;20029;-65
2022/08/18 14:29:34;;;;;;;2.90;1.70;;;24.30;92.60;;;;;;10357392;28;20033;-68
2022/08/18 14:34:35;;;;;;;2.05;1.65;;;24.20;92.70;;;;;;10370785;28;20036;-66
2022/08/18 14:39:36;;;;;;;2.33;1.90;;;24.20;92.70;;;;;;10367174;28;20386;-69
2022/08/18 14:44:36;;;;;;;2.03;1.77;;;24.00;92.80;;;;;;10370761;28;20037;-67
2022/08/18 14:49:38;;;;;;;2.90;2.28;;;23.80;92.90;;;;;;10351206;28;20198;-64
2022/08/18 14:54:39;;;;;;;3.53;2.25;;;23.70;93.00;;;;;;10372035;28;20041;-64
2022/08/18 14:59:40;;;;;;;4.60;2.10;;;23.60;93.10;;;;;;10373870;28;20246;-64
2022/08/18 15:04:41;;;;;;;3.00;1.95;;;23.70;93.20;;;;;;10370273;28;20062;-65
2022/08/18 15:09:42;;;;;;;3.53;1.73;;;23.60;93.20;;;;;;10368926;28;20032;-68
2022/08/18 15:14:43;;;;;;;2.40;2.03;;;23.60;93.20;;;;;;10370942;28;20141;-67
2022/08/18 15:19:46;;;;;;;3.05;2.17;;;23.50;93.20;;;;;;10370760;28;20381;-69
2022/08/18 15:30:10;;;;;;;2.60;2.10;;;23.50;93.30;;;;;;10370248;28;20029;-68
2022/08/18 15:35:15;;;;;;;2.45;2.13;;;23.40;93.20;;;;;;10372083;28;20060;-67
2022/08/18 15:40:19;;;;;;;3.60;1.90;;;23.50;93.40;;;;;;10369077;28;20790;-67
2022/08/18 15:45:28;;;;;;;2.03;1.83;;;23.60;93.60;;;;;;10372809;28;20056;-69
2022/08/18 15:50:29;;;;;;;3.60;1.90;;;23.60;93.10;;;;;;10366124;28;20025;-68
2022/08/18 15:55:32;;;;;;;2.20;1.88;;;23.60;93.00;;;;;;10363871;28;20032;-68
2022/08/18 16:00:33;;;;;;;2.03;1.80;;;23.50;92.70;;;;;;10366728;28;20047;-68
2022/08/18 16:05:44;;;;;;;2.80;2.25;;;23.50;92.70;;;;;;10358849;28;20438;-68
2022/08/18 16:10:45;;;;;;;3.22;2.00;;;23.60;92.80;;;;;;10361767;28;20591;-68
2022/08/18 16:15:47;;;;;;;2.80;2.22;;;23.60;92.80;;;;;;10364435;28;20021;-68
2022/08/18 16:20:48;;;;;;;2.45;2.08;;;23.60;92.70;;;;;;10366806;28;20443;-68
2022/08/18 16:25:49;;;;;;;2.45;2.00;;;23.60;92.40;;;;;;10362361;28;20087;-67
2022/08/18 16:30:50;;;;;;;5.00;2.88;;;23.70;92.30;;;;;;10361924;28;20041;-67
2022/08/18 16:35:51;;;;;;;3.20;2.20;;;23.70;92.10;;;;;;10362952;28;20468;-67
2022/08/18 16:40:51;;;;;;;4.05;2.42;;;23.70;92.20;;;;;;10362020;28;20029;-68
2022/08/18 16:45:54;;;;;;;3.50;2.15;;;23.70;92.30;;;;;;10362613;28;20153;-68
2022/08/18 16:50:55;;;;;;;4.72;2.38;;;23.70;92.00;;;;;;10360326;28;20268;-65
2022/08/18 16:55:56;;;;;;;4.63;2.30;;;23.70;92.00;;;;;;10355579;28;20805;-64
2022/08/18 17:06:27;;;;;;;4.05;2.30;;;23.60;92.20;;;;;;10359687;28;20029;-64
2022/08/18 17:11:36;;;;;;;3.10;2.17;;;23.50;92.00;;;;;;10356751;28;20034;-63
2022/08/18 17:16:38;;;;;;;5.88;2.58;;;23.40;92.20;;;;;;10349462;22;20759;-63
2022/08/18 17:21:39;;;;;;;4.57;2.75;;;23.30;92.40;;;;;;10302987;28;20045;-64
2022/08/18 17:27:04;;;;;;;4.07;2.33;;;23.30;92.60;;;;;;10311236;28;20528;-64
2022/08/18 17:32:10;;;;;;;5.47;3.15;;;23.20;92.40;;;;;;10321669;28;20025;-63
2022/08/18 17:37:14;;;;;;;4.53;2.30;;;23.20;92.70;;;;;;10310265;28;20800;-63
2022/08/18 17:42:24;;;;;;;4.43;2.47;;;23.10;93.00;;;;;;10291934;28;20038;-65
2022/08/18 17:47:32;;;;;;;5.25;2.10;;;23.10;93.00;;;;;;10338919;28;20697;-62
2022/08/18 17:52:46;;;;;;;4.57;2.13;;;23.10;92.90;;;;;;10323996;28;20083;-62
2022/08/18 17:58:00;;;;;;;2.33;2.13;;;23.00;93.10;;;;;;10316042;28;20334;-62
2022/08/18 18:03:01;;;;;;;3.35;1.90;;;23.00;93.40;;;;;;10320149;28;20041;-62
2022/08/18 18:08:02;;;;;;;3.08;2.15;;;23.00;93.50;;;;;;10318477;28;20307;-63
2022/08/18 18:13:15;;;;;;;3.00;2.47;;;23.00;93.60;;;;;;10314542;28;20025;-63
2022/08/18 18:18:30;;;;;;;6.00;2.35;;;22.90;93.40;;;;;;10327216;28;20049;-62
2022/08/18 18:23:35;;;;;;;2.65;2.20;;;22.80;93.60;;;;;;10333132;28;20029;-62
2022/08/18 18:28:36;;;;;;;3.45;2.42;;;22.80;93.90;;;;;;10328760;28;20029;-62
2022/08/18 18:33:37;;;;;;;2.90;2.10;;;22.80;94.10;;;;;;10312351;28;20029;-62
2022/08/18 18:38:47;;;;;;;2.10;1.88;;;22.70;94.40;;;;;;10312751;28;20098;-62
2022/08/18 18:43:50;;;;;;;2.83;2.03;;;22.60;94.50;;;;;;10329043;28;20349;-63
2022/08/18 18:49:03;;;;;;;2.30;2.10;;;22.60;94.80;;;;;;10328651;28;20029;-63
2022/08/18 18:54:45;;;;;;;2.90;2.60;;;22.60;95.10;;;;;;10323212;28;20045;-70
2022/08/18 19:05:36;;;;;;;3.70;3.20;;;22.40;95.20;;;;;;10408697;22;20049;-62
2022/08/18 19:10:48;;;;;;;5.40;2.95;;;22.30;95.50;;;;;;10409598;22;20418;-62
2022/08/18 19:15:52;;;;;;;3.72;3.35;;;22.20;95.50;;;;;;10407322;22;20934;-62
2022/08/18 19:21:03;;;;;;;4.18;3.10;;;22.00;95.30;;;;;;10342187;28;20401;-61
2022/08/18 19:26:09;;;;;;;4.57;3.55;;;22.10;95.60;;;;;;10436111;28;20037;-62
2022/08/18 19:31:23;;;;;;;3.70;3.25;;;22.20;95.40;;;;;;10435874;28;20501;-62
2022/08/18 19:36:46;;;;;;;4.07;3.33;;;22.30;95.30;;;;;;10417563;28;20049;-61
2022/08/18 19:41:53;;;;;;;3.85;2.80;;;22.40;95.50;;;;;;10437960;28;20049;-61
2022/08/18 19:47:03;;;;;;;5.30;3.00;;;22.50;95.00;;;;;;10437778;28;20039;-62
2022/08/18 19:52:26;;;;;;;3.60;3.15;;;22.50;94.90;;;;;;10436936;28;20027;-61
2022/08/18 19:58:08;;;;;;;3.55;2.95;;;22.60;94.90;;;;;;10434207;28;20037;-61
2022/08/18 20:03:37;;;;;;;2.95;2.50;;;22.60;94.80;;;;;;10436838;28;20540;-60
2022/08/18 20:08:56;;;;;;;3.33;2.75;;;22.60;94.80;;;;;;10437435;28;20500;-61
2022/08/18 20:13:57;;;;;;;2.78;2.53;;;22.60;94.70;;;;;;10435315;28;20061;-60
2022/08/18 20:19:00;;;;;;;3.15;2.80;;;22.60;94.70;;;;;;10436612;28;20447;-61
2022/08/18 20:24:14;;;;;;;2.72;2.45;;;22.60;94.70;;;;;;10432669;28;20048;-61
2022/08/18 20:29:37;;;;;;;2.97;2.63;;;22.60;94.60;;;;;;10434512;28;20743;-61
2022/08/18 20:34:45;;;;;;;2.70;2.50;;;22.60;94.60;;;;;;10434901;28;20025;-61
2022/08/18 20:39:47;;;;;;;;;;;22.60;94.60;;;;;;10435970;28;20036;-62
2022/08/18 20:44:48;;;;;;;2.42;2.22;;;22.60;94.50;;;;;;10435283;28;19917;-60
2022/08/18 20:50:02;;;;;;;3.15;2.70;;;22.60;94.60;;;;;;10413299;28;20017;-61
2022/08/18 20:55:22;;;;;;;3.20;2.80;;;22.60;94.60;;;;;;10434521;28;20036;-60
2022/08/18 21:00:26;;;;;;;3.22;2.92;;;22.50;94.50;;;;;;10436406;28;20512;-62
2022/08/18 21:05:35;;;;;;;4.47;2.65;;;22.50;94.50;;;;;;10437795;28;20045;-63
2022/08/18 21:10:36;;;;;;;3.50;2.53;;;22.50;94.60;;;;;;10409396;28;20124;-61
2022/08/18 21:15:37;;;;;;;2.47;2.28;;;22.50;94.60;;;;;;10436715;28;21771;-61
2022/08/18 21:20:38;;;;;;;3.00;2.30;;;22.50;94.50;;;;;;10435477;28;20028;-60
2022/08/18 21:25:53;;;;;;;3.88;2.58;;;22.40;94.50;;;;;;10434772;28;20485;-62
2022/08/18 21:30:58;;;;;;;3.10;2.33;;;22.40;94.50;;;;;;10434185;28;20024;-62
2022/08/18 21:36:10;;;;;;;3.35;2.42;;;22.40;94.50;;;;;;10435191;28;20009;-61
2022/08/18 21:41:12;;;;;;;3.75;2.42;;;22.40;94.40;;;;;;10433103;28;20404;-60
2022/08/18 21:46:25;;;;;;;3.13;2.50;;;22.40;94.50;;;;;;10437890;28;20284;-61
2022/08/18 21:51:40;;;;;;;3.55;2.28;;;22.40;94.40;;;;;;10432844;28;20037;-61
2022/08/18 21:56:41;;;;;;;2.45;2.15;;;22.30;94.40;;;;;;10433766;28;20024;-60
2022/08/18 22:01:52;;;;;;;3.80;2.47;;;22.30;94.40;;;;;;10433071;28;20036;-61
2022/08/18 22:06:57;;;;;;;3.20;2.42;;;22.30;94.30;;;;;;10434386;28;20603;-61
2022/08/18 22:18:05;;;;;;;3.65;2.70;;;22.20;94.20;;;;;;10433605;28;20032;-62
2022/08/18 22:29:09;;;;;;;2.78;2.42;;;22.20;94.20;;;;;;10431778;28;20230;-61
2022/08/18 22:34:15;;;;;;;;;;;22.20;94.20;;;;;;10434003;28;20029;-61
2022/08/18 22:39:40;;;;;;;2.40;2.20;;;22.10;94.10;;;;;;10434535;28;19992;-61
2022/08/18 22:44:42;;;;;;;3.33;2.30;;;22.10;94.20;;;;;;10433587;28;20041;-61
2022/08/18 22:49:44;;;;;;;3.05;2.28;;;22.10;94.20;;;;;;10434782;28;20469;-61
2022/08/18 22:54:45;;;;;;;2.95;2.15;;;22.00;94.20;;;;;;10432986;28;20037;-61
2022/08/18 22:59:45;;;;;;;3.30;2.22;;;22.00;94.20;;;;;;10429580;28;20025;-62
2022/08/18 23:04:47;;;;;;;2.83;2.30;;;22.00;94.20;;;;;;10440836;28;20025;-61
2022/08/18 23:09:47;;;;;;;2.58;2.33;;;22.00;94.20;;;;;;10440689;28;20492;-61
2022/08/18 23:14:48;;;;;;;3.50;2.30;;;21.90;94.10;;;;;;10441728;28;20045;-60
2022/08/18 23:19:49;;;;;;;2.38;2.10;;;21.90;94.10;;;;;;10441537;28;20505;-61
2022/08/18 23:24:50;;;;;;;3.65;2.10;;;21.90;94.10;;;;;;10440053;28;20036;-61
2022/08/18 23:29:51;;;;;;;2.80;2.25;;;21.90;94.10;;;;;;10435807;28;20014;-61
2022/08/18 23:34:52;;;;;;;2.80;2.00;;;21.90;94.10;;;;;;10421209;28;20488;-60
2022/08/18 23:39:52;;;;;;;3.22;2.10;;;21.90;94.00;;;;;;10442304;28;20481;-61
2022/08/18 23:44:57;;;;;;;2.70;2.17;;;21.80;94.00;;;;;;10440485;28;20041;-61
2022/08/18 23:49:58;;;;;;;2.30;2.10;;;21.80;94.00;;;;;;10437892;28;20409;-62
2022/08/18 23:55:10;;;;;;;3.33;2.30;;;21.80;93.90;;;;;;10435256;28;20037;-60
